首页
METAR-TAF:

METAR-TAF

机场 :

麦卡伦国际机场

拉斯维加斯, 内华达州, 美国

纬度: 36-04-44N, 经度: 115-09-19W, 海拔: 663米

当前天气观测

该预报发布于41分钟前的01:56 UTC
静风
温度 22°C
湿度 53%
气压 1014 hPa
能見度: 16.1公里
少量云层高于10000英尺

METAR: KLAS 220156Z 00000KT 10SM FEW100 22/12 A2993 RMK AO2 SLP120 T02220122 $

时间: 19:37 (02:37 UTC)

预报

该预报发布于3小时和17分钟前的23:20 UTC
预报有效从22日的 00点(UTC)到 23日的 06点(UTC)
风速5节,风向多变
能見度: 10公里
散云层高于10000英尺
从 22日的 1000点(UTC)
风速5节,风向多变
能見度: 10公里
多云层高于8000英尺, 积雨云.
多云层高于10000英尺
附近有雷暴
从 22日的 1700点(UTC)
风速7节,风向
能見度: 10公里
散云层高于8000英尺
从 23日的 0300点(UTC)
风速5节,风向多变
能見度: 10公里
散云层高于10000英尺

TAF: KLAS 212320Z 2200/2306 VRB05KT P6SM SCT100 FM221000 VRB05KT P6SM VCTS BKN080CB BKN100 FM221700 08007KT P6SM SCT080 FM230300 VRB05KT P6SM SCT100

超过4000个机场的气象观测和天气预报(METAR&TAF报告)。

可查询的气象台以黄色和红色小点在地图上表示。

将鼠标移到小点上方,可查看气象台名称。

然后点击查看天气观测和预报。

如需切换地图:点击带黑十字的绿色按钮放大地图;点击带横线的绿色按钮缩小地图;或者点击绿色箭头查看邻近地区的地图。


METAR-TAF: